Hypoluxo, Florida
Current Conditions -  °F | °C
As of 6:53 AM on Friday 19 Dec 2014 (Local Time) from KPBI Reporting Station
Scattered Clouds Scattered Clouds  
Wind Chill: 13°   Ceiling: Unl
Heat Index: 13°   Visibility: 10mi
Dew Point: 11°   Wind: 3mph
Humidity: 84%   Direction: 310°NW
Pressure: 30.08"   Gusts: NA
Location:  26.5758°N, 80.0835°W
Report Text: KPBI 191153Z 31003KT 10SM FEW030 SCT250 13/11 A3008 RMK AO2 SLP185 T01330106 10150 20122 53003
Loading
Personal Weather Stations






























Interactive Weather Map New forecast layout! Learn more

10-Day Weather Forecast

Advertisements
Track Severe Weather on mobile